Time;durP1;ratioP1;P1;durP2;ratioP2;P2;SDS_P1;SDS_P2;PMS_P1;PMS_P2;Temp;Humidity;BMP_temperature;BMP_pressure;BME280_temperature;BME280_humidity;BME280_pressure;Samples;Min_cycle;Max_cycle;Signal;HPM_P1;HPM_P2
2021/01/26 00:00:57;;;;;;;55.77;36.47;;;;;;;;;;2072736;28;20172;-57
2021/01/26 00:01:57;;;;;;;56.83;35.73;;;;;;;;;;2079755;28;20172;-57
2021/01/26 00:02:58;;;;;;;56.77;36.17;;;;;;;;;;2083248;28;20227;-59
2021/01/26 00:03:58;;;;;;;55.27;35.63;;;;;;;;;;2089073;28;20171;-58
2021/01/26 00:04:58;;;;;;;60.73;37.63;;;;;;;;;;2083463;28;20184;-59
2021/01/26 00:05:58;;;;;;;59.70;36.80;;;;;;;;;;2088250;28;20171;-60
2021/01/26 00:06:59;;;;;;;56.80;38.23;;;;;;;;;;2083227;28;20176;-59
2021/01/26 00:07:59;;;;;;;57.37;36.80;;;;;;;;;;2087248;28;20602;-59
2021/01/26 00:08:59;;;;;;;53.50;36.07;;;;;;;;;;2084086;28;20179;-58
2021/01/26 00:10:00;;;;;;;55.30;35.60;;;;;;;;;;2089594;28;20195;-59
2021/01/26 00:11:01;;;;;;;55.30;35.00;;;;;;;;;;2089018;28;20229;-58
2021/01/26 00:12:01;;;;;;;57.27;36.47;;;;;;;;;;2089414;28;20404;-59
2021/01/26 00:13:01;;;;;;;53.73;33.80;;;;;;;;;;2088753;28;20203;-58
2021/01/26 00:14:02;;;;;;;58.10;37.23;;;;;;;;;;2088553;28;20188;-57
2021/01/26 00:15:03;;;;;;;58.23;36.53;;;;;;;;;;2089621;28;20171;-58
2021/01/26 00:16:03;;;;;;;53.70;35.03;;;;;;;;;;2088462;28;20273;-58
2021/01/26 00:17:04;;;;;;;50.93;34.10;;;;;;;;;;2088792;28;20187;-59
2021/01/26 00:18:05;;;;;;;55.60;36.40;;;;;;;;;;2088067;28;20184;-61
2021/01/26 00:19:06;;;;;;;52.57;34.57;;;;;;;;;;2088761;28;20184;-59
2021/01/26 00:20:10;;;;;;;51.93;34.83;;;;;;;;;;2085648;28;20176;-57
2021/01/26 00:21:11;;;;;;;53.87;35.33;;;;;;;;;;2080875;28;20424;-59
2021/01/26 00:22:11;;;;;;;53.47;36.83;;;;;;;;;;2088626;28;20948;-59
2021/01/26 00:23:11;;;;;;;53.37;36.50;;;;;;;;;;2088929;28;20652;-59
2021/01/26 00:24:11;;;;;;;55.63;35.90;;;;;;;;;;2089402;28;20548;-59
2021/01/26 00:25:15;;;;;;;53.17;35.17;;;;;;;;;;2087661;28;20194;-58
2021/01/26 00:26:17;;;;;;;53.00;35.10;;;;;;;;;;2089289;28;20211;-58
2021/01/26 00:27:17;;;;;;;52.33;35.80;;;;;;;;;;2088199;28;21113;-59
2021/01/26 00:28:17;;;;;;;54.67;36.17;;;;;;;;;;2089160;28;20199;-57
2021/01/26 00:29:17;;;;;;;53.97;33.57;;;;;;;;;;2086738;28;20266;-58
2021/01/26 00:30:23;;;;;;;57.57;35.57;;;;;;;;;;2089030;28;20256;-56
2021/01/26 00:31:23;;;;;;;53.33;36.10;;;;;;;;;;2089124;28;20585;-58
2021/01/26 00:32:23;;;;;;;53.67;35.67;;;;;;;;;;2089201;28;20482;-57
2021/01/26 00:33:24;;;;;;;55.63;37.00;;;;;;;;;;2093306;28;20247;-60
2021/01/26 00:34:24;;;;;;;53.57;36.37;;;;;;;;;;2093274;28;20687;-59
2021/01/26 00:35:25;;;;;;;55.23;35.73;;;;;;;;;;2089093;28;20175;-59
2021/01/26 00:36:25;;;;;;;54.90;36.37;;;;;;;;;;2088649;28;20281;-57
2021/01/26 00:37:25;;;;;;;55.10;35.70;;;;;;;;;;2087987;28;20234;-57
2021/01/26 00:38:25;;;;;;;57.00;35.83;;;;;;;;;;2087194;28;20184;-59
2021/01/26 00:39:26;;;;;;;51.60;35.10;;;;;;;;;;2088451;28;20263;-59
2021/01/26 00:40:26;;;;;;;57.57;37.43;;;;;;;;;;2076382;28;20183;-54
2021/01/26 00:41:26;;;;;;;65.60;38.13;;;;;;;;;;2082261;28;20186;-59
2021/01/26 00:42:27;;;;;;;56.63;38.03;;;;;;;;;;2090143;28;20183;-59
2021/01/26 00:43:28;;;;;;;57.63;37.23;;;;;;;;;;2081549;28;20245;-59
2021/01/26 00:44:28;;;;;;;59.73;38.70;;;;;;;;;;2081968;28;20584;-58
2021/01/26 00:45:28;;;;;;;60.77;37.50;;;;;;;;;;2091053;28;20160;-58
2021/01/26 00:46:29;;;;;;;57.83;39.33;;;;;;;;;;2083473;28;20188;-58
2021/01/26 00:47:29;;;;;;;54.20;36.33;;;;;;;;;;2084504;28;20191;-58
2021/01/26 00:48:29;;;;;;;57.70;36.67;;;;;;;;;;2082095;28;20195;-59
2021/01/26 00:49:29;;;;;;;55.50;37.57;;;;;;;;;;2073520;28;20171;-59
2021/01/26 00:50:30;;;;;;;55.20;37.67;;;;;;;;;;2073924;28;20176;-57
2021/01/26 00:51:30;;;;;;;56.50;36.07;;;;;;;;;;2076457;28;20728;-58
2021/01/26 00:52:30;;;;;;;54.00;36.33;;;;;;;;;;2090194;28;20336;-58
2021/01/26 00:53:38;;;;;;;53.57;35.23;;;;;;;;;;2081599;28;20941;-58
2021/01/26 00:54:42;;;;;;;54.43;35.27;;;;;;;;;;2073770;28;20441;-58
2021/01/26 00:55:42;;;;;;;54.23;37.33;;;;;;;;;;2071735;28;20406;-57
2021/01/26 00:56:44;;;;;;;54.67;35.67;;;;;;;;;;2081899;28;20180;-56
2021/01/26 00:57:44;;;;;;;50.93;36.10;;;;;;;;;;2072850;28;20453;-59
2021/01/26 00:58:45;;;;;;;56.13;36.47;;;;;;;;;;2082454;28;20672;-59
2021/01/26 00:59:48;;;;;;;55.80;38.20;;;;;;;;;;2090518;28;20172;-58
2021/01/26 01:00:49;;;;;;;56.07;36.00;;;;;;;;;;2082164;28;20465;-59
2021/01/26 01:01:54;;;;;;;56.20;37.50;;;;;;;;;;2073625;28;20429;-57
2021/01/26 01:02:55;;;;;;;55.70;36.33;;;;;;;;;;2078419;28;20433;-57
2021/01/26 01:03:55;;;;;;;53.70;35.30;;;;;;;;;;2090484;28;20908;-54
2021/01/26 01:04:55;;;;;;;57.23;37.33;;;;;;;;;;2091318;28;20254;-59
2021/01/26 01:05:55;;;;;;;55.47;37.17;;;;;;;;;;2087358;28;20696;-57
2021/01/26 01:06:56;;;;;;;52.90;35.57;;;;;;;;;;2084809;28;20188;-57
2021/01/26 01:07:56;;;;;;;56.60;37.03;;;;;;;;;;2086034;28;20657;-58
2021/01/26 01:08:56;;;;;;;53.57;34.20;;;;;;;;;;2089916;28;20180;-56
2021/01/26 01:09:56;;;;;;;51.90;34.87;;;;;;;;;;2086168;28;20674;-56
2021/01/26 01:10:57;;;;;;;45.80;31.80;;;;;;;;;;2090973;28;20709;-57
2021/01/26 01:11:57;;;;;;;49.93;34.50;;;;;;;;;;2090983;28;20175;-59
2021/01/26 01:12:57;;;;;;;40.37;28.30;;;;;;;;;;2091447;28;20660;-59
2021/01/26 01:13:58;;;;;;;43.33;30.37;;;;;;;;;;2083317;28;20227;-58
2021/01/26 01:14:58;;;;;;;43.83;31.17;;;;;;;;;;2089961;28;20174;-58
2021/01/26 01:15:58;;;;;;;45.47;29.63;;;;;;;;;;2089999;28;20186;-58
2021/01/26 01:16:58;;;;;;;41.23;29.67;;;;;;;;;;2083201;28;20183;-56
2021/01/26 01:17:59;;;;;;;43.30;30.40;;;;;;;;;;2068849;28;20263;-58
2021/01/26 01:18:59;;;;;;;42.00;28.30;;;;;;;;;;2073837;28;20165;-58
2021/01/26 01:19:59;;;;;;;38.53;27.27;;;;;;;;;;2085786;28;20182;-60
2021/01/26 01:20:59;;;;;;;43.63;28.93;;;;;;;;;;2089574;28;20209;-58
2021/01/26 01:22:00;;;;;;;41.53;28.63;;;;;;;;;;2084874;28;20195;-61
2021/01/26 01:23:00;;;;;;;36.90;27.47;;;;;;;;;;2089493;28;20182;-59
2021/01/26 01:24:00;;;;;;;37.70;26.53;;;;;;;;;;2085019;28;20184;-57
2021/01/26 01:25:00;;;;;;;36.87;27.07;;;;;;;;;;2090103;28;20187;-56
2021/01/26 01:26:01;;;;;;;38.83;27.53;;;;;;;;;;2090739;28;20210;-56
2021/01/26 01:27:01;;;;;;;35.30;26.80;;;;;;;;;;2080678;28;20208;-58
2021/01/26 01:28:02;;;;;;;40.30;28.83;;;;;;;;;;2081831;28;20188;-58
2021/01/26 01:29:02;;;;;;;38.17;28.27;;;;;;;;;;2083023;28;20644;-61
2021/01/26 01:30:04;;;;;;;38.20;27.80;;;;;;;;;;2084839;28;20175;-56
2021/01/26 01:31:04;;;;;;;42.53;29.70;;;;;;;;;;2089782;28;20282;-59
2021/01/26 01:32:04;;;;;;;38.60;29.20;;;;;;;;;;2090421;28;20921;-58
2021/01/26 01:33:05;;;;;;;41.53;27.37;;;;;;;;;;2089297;28;20204;-57
2021/01/26 01:34:09;;;;;;;39.13;25.30;;;;;;;;;;2090539;28;20211;-59
2021/01/26 01:35:09;;;;;;;38.70;25.83;;;;;;;;;;2089940;28;20640;-59
2021/01/26 01:36:09;;;;;;;36.93;25.50;;;;;;;;;;2089704;28;20401;-57
2021/01/26 01:37:10;;;;;;;38.90;26.00;;;;;;;;;;2085778;28;20670;-58
2021/01/26 01:38:10;;;;;;;33.23;25.17;;;;;;;;;;2073076;28;20264;-60
2021/01/26 01:39:10;;;;;;;34.93;25.43;;;;;;;;;;2076907;28;20250;-58
2021/01/26 01:40:13;;;;;;;34.20;23.93;;;;;;;;;;2090360;28;20242;-57
2021/01/26 01:41:13;;;;;;;34.53;24.80;;;;;;;;;;2090050;28;20179;-59
2021/01/26 01:42:13;;;;;;;32.57;23.53;;;;;;;;;;2086507;28;20436;-58
2021/01/26 01:43:13;;;;;;;34.67;24.47;;;;;;;;;;2086773;28;20263;-59
2021/01/26 01:44:14;;;;;;;30.77;23.73;;;;;;;;;;2089139;28;20211;-57
2021/01/26 01:46:27;;;;;;;30.93;21.23;;;;;;;;;;2079216;28;20274;-59
2021/01/26 01:47:34;;;;;;;30.13;23.13;;;;;;;;;;2080991;28;20503;-58
2021/01/26 01:48:35;;;;;;;33.77;23.40;;;;;;;;;;2079389;28;20432;-59
2021/01/26 01:49:37;;;;;;;34.73;24.13;;;;;;;;;;2081530;28;20417;-59
2021/01/26 01:50:44;;;;;;;33.83;25.07;;;;;;;;;;2081507;28;20204;-58
2021/01/26 01:51:45;;;;;;;34.03;23.40;;;;;;;;;;2079552;28;20408;-57
2021/01/26 01:52:49;;;;;;;31.63;24.53;;;;;;;;;;2074278;28;21228;-60
2021/01/26 01:53:54;;;;;;;34.37;25.23;;;;;;;;;;2080831;28;20905;-58
2021/01/26 01:55:04;;;;;;;32.40;24.67;;;;;;;;;;2082044;28;20417;-61
2021/01/26 01:56:06;;;;;;;31.50;21.63;;;;;;;;;;2085591;28;20458;-59
2021/01/26 01:57:12;;;;;;;31.43;24.43;;;;;;;;;;2089527;28;20431;-57
2021/01/26 01:58:18;;;;;;;35.17;23.77;;;;;;;;;;2088133;28;20424;-57
2021/01/26 01:59:24;;;;;;;34.03;23.70;;;;;;;;;;2089739;28;20421;-57
2021/01/26 02:00:25;;;;;;;38.53;25.73;;;;;;;;;;2089327;28;20412;-60
2021/01/26 02:01:27;;;;;;;29.63;21.17;;;;;;;;;;2089612;28;20508;-57
2021/01/26 02:02:28;;;;;;;36.70;25.50;;;;;;;;;;2090083;28;20176;-58
2021/01/26 02:03:29;;;;;;;38.23;26.30;;;;;;;;;;2089687;28;20415;-59
2021/01/26 02:04:30;;;;;;;34.77;24.10;;;;;;;;;;2088022;28;20191;-59
2021/01/26 02:05:30;;;;;;;36.27;24.20;;;;;;;;;;2089423;28;20446;-57
2021/01/26 02:06:33;;;;;;;34.30;24.33;;;;;;;;;;2088727;28;20183;-61
2021/01/26 02:07:33;;;;;;;39.80;24.03;;;;;;;;;;2090529;28;20176;-60
2021/01/26 02:08:53;;;;;;;30.07;19.87;;;;;;;;;;2081327;28;20436;-61
2021/01/26 02:09:54;;;;;;;29.97;20.00;;;;;;;;;;2081656;28;20275;-58
2021/01/26 02:10:54;;;;;;;34.00;23.23;;;;;;;;;;2090265;28;20403;-57
2021/01/26 02:11:55;;;;;;;35.23;23.97;;;;;;;;;;2099913;28;20178;-57
2021/01/26 02:12:55;;;;;;;34.07;23.30;;;;;;;;;;2097233;28;20289;-58
2021/01/26 02:13:55;;;;;;;33.83;22.10;;;;;;;;;;2088054;28;20171;-59
2021/01/26 02:14:57;;;;;;;32.90;23.77;;;;;;;;;;2090260;28;20521;-56
2021/01/26 02:15:59;;;;;;;27.57;18.87;;;;;;;;;;2088036;28;20194;-56
2021/01/26 02:17:18;;;;;;;32.10;23.60;;;;;;;;;;2098546;28;20498;-54
2021/01/26 02:18:40;;;;;;;31.53;21.50;;;;;;;;;;2092670;28;20402;-56
2021/01/26 02:19:50;;;;;;;31.70;18.43;;;;;;;;;;2085875;28;20424;-56
2021/01/26 02:21:09;;;;;;;32.17;20.43;;;;;;;;;;2089987;28;20416;-58
2021/01/26 02:22:10;;;;;;;26.13;17.03;;;;;;;;;;2085913;28;20437;-60
2021/01/26 02:23:16;;;;;;;28.30;17.23;;;;;;;;;;2089490;28;20776;-58
2021/01/26 02:24:30;;;;;;;29.90;20.30;;;;;;;;;;2089539;28;20187;-57
2021/01/26 02:25:48;;;;;;;28.80;19.77;;;;;;;;;;2082892;28;20421;-58
2021/01/26 02:27:14;;;;;;;24.93;15.83;;;;;;;;;;2089890;28;20412;-59
2021/01/26 02:28:28;;;;;;;23.43;15.37;;;;;;;;;;2085893;28;20409;-58
2021/01/26 02:29:50;;;;;;;22.97;14.40;;;;;;;;;;2087103;28;20470;-57
2021/01/26 02:30:57;;;;;;;17.37;11.23;;;;;;;;;;2082904;28;20539;-59
2021/01/26 02:32:15;;;;;;;19.20;12.53;;;;;;;;;;2086285;28;20432;-59
2021/01/26 02:33:35;;;;;;;16.90;11.77;;;;;;;;;;2093225;28;20499;-59
2021/01/26 02:35:02;;;;;;;12.03;9.67;;;;;;;;;;2089948;28;20448;-62
2021/01/26 02:36:24;;;;;;;10.37;6.93;;;;;;;;;;2089297;28;20431;-59
2021/01/26 02:37:30;;;;;;;16.30;11.43;;;;;;;;;;2087446;28;20490;-58
2021/01/26 02:38:53;;;;;;;12.80;9.43;;;;;;;;;;2080404;28;20426;-59
2021/01/26 02:39:56;;;;;;;15.57;10.23;;;;;;;;;;2072356;28;20199;-60
2021/01/26 02:41:01;;;;;;;14.13;8.67;;;;;;;;;;2089199;28;20447;-60
2021/01/26 02:42:17;;;;;;;19.87;9.03;;;;;;;;;;2092961;28;20458;-59
2021/01/26 02:43:31;;;;;;;13.47;8.43;;;;;;;;;;2082339;28;20420;-58
2021/01/26 02:44:52;;;;;;;11.90;8.70;;;;;;;;;;2087316;28;20411;-60
2021/01/26 02:46:10;;;;;;;10.83;8.47;;;;;;;;;;2089298;28;20451;-57
2021/01/26 02:47:25;;;;;;;10.97;7.47;;;;;;;;;;2085396;28;20201;-57
2021/01/26 02:48:32;;;;;;;7.10;5.90;;;;;;;;;;2089151;28;20438;-58
2021/01/26 02:49:36;;;;;;;8.60;6.87;;;;;;;;;;2089412;28;20412;-57
2021/01/26 02:50:36;;;;;;;12.13;8.23;;;;;;;;;;2076889;28;20430;-57
2021/01/26 02:51:45;;;;;;;11.27;7.43;;;;;;;;;;2094023;28;20502;-59
2021/01/26 02:52:56;;;;;;;11.43;6.23;;;;;;;;;;2083042;28;20583;-59
2021/01/26 02:54:03;;;;;;;8.70;6.83;;;;;;;;;;2090253;28;20401;-57
2021/01/26 02:55:06;;;;;;;11.20;6.53;;;;;;;;;;2089013;28;20397;-59
2021/01/26 02:56:14;;;;;;;12.20;6.97;;;;;;;;;;2090447;28;20952;-60
2021/01/26 02:57:19;;;;;;;8.93;4.97;;;;;;;;;;2084378;28;20416;-58
2021/01/26 02:58:28;;;;;;;8.07;5.47;;;;;;;;;;2086917;28;20425;-59
2021/01/26 02:59:47;;;;;;;8.10;6.13;;;;;;;;;;2087983;28;20777;-58
2021/01/26 03:00:50;;;;;;;7.20;6.10;;;;;;;;;;2081756;28;20394;-58
2021/01/26 03:01:54;;;;;;;7.33;6.40;;;;;;;;;;2093166;28;20422;-59
2021/01/26 03:03:01;;;;;;;5.97;4.90;;;;;;;;;;2090184;28;20412;-58
2021/01/26 03:04:04;;;;;;;7.63;6.00;;;;;;;;;;2090232;28;20194;-56
2021/01/26 03:05:07;;;;;;;7.53;5.23;;;;;;;;;;2089385;28;20427;-58
2021/01/26 03:06:10;;;;;;;9.07;6.60;;;;;;;;;;2089607;28;20482;-57
2021/01/26 03:07:12;;;;;;;6.90;4.47;;;;;;;;;;2089466;28;20424;-57
2021/01/26 03:08:18;;;;;;;7.70;5.83;;;;;;;;;;2093131;28;20424;-59
2021/01/26 03:09:21;;;;;;;7.73;6.10;;;;;;;;;;2096181;28;20994;-58
2021/01/26 03:10:24;;;;;;;6.60;5.50;;;;;;;;;;2089085;28;20936;-58
2021/01/26 03:11:30;;;;;;;7.87;6.33;;;;;;;;;;2088994;28;20467;-59
2021/01/26 03:12:33;;;;;;;8.03;5.60;;;;;;;;;;2089551;28;20913;-57
2021/01/26 03:13:35;;;;;;;5.67;5.10;;;;;;;;;;2089984;28;20409;-57
2021/01/26 03:14:41;;;;;;;8.10;5.40;;;;;;;;;;2089612;28;20405;-60
2021/01/26 03:15:48;;;;;;;6.37;4.63;;;;;;;;;;2088792;28;20437;-57
2021/01/26 03:16:52;;;;;;;6.73;5.47;;;;;;;;;;2090200;28;20444;-60
2021/01/26 03:17:58;;;;;;;10.30;5.83;;;;;;;;;;2090860;28;20433;-61
2021/01/26 03:19:10;;;;;;;7.93;6.10;;;;;;;;;;2097853;28;20400;-59
2021/01/26 03:20:16;;;;;;;6.10;5.17;;;;;;;;;;2093414;28;20427;-57
2021/01/26 03:21:18;;;;;;;9.80;5.07;;;;;;;;;;2088824;28;20416;-59
2021/01/26 03:22:21;;;;;;;7.27;4.97;;;;;;;;;;2089180;28;20408;-56
2021/01/26 03:23:26;;;;;;;8.30;5.93;;;;;;;;;;2086440;28;20496;-60
2021/01/26 03:24:31;;;;;;;7.43;6.20;;;;;;;;;;2087004;28;20412;-58
2021/01/26 03:25:33;;;;;;;5.93;5.07;;;;;;;;;;2097044;28;20411;-56
2021/01/26 03:26:34;;;;;;;5.67;5.10;;;;;;;;;;2098901;28;20497;-60
2021/01/26 03:27:37;;;;;;;6.93;5.73;;;;;;;;;;2090969;28;20459;-57
2021/01/26 03:28:38;;;;;;;9.50;5.77;;;;;;;;;;2089524;28;20428;-59
2021/01/26 03:29:40;;;;;;;8.03;5.73;;;;;;;;;;2093170;28;20179;-58
2021/01/26 03:30:42;;;;;;;8.87;5.33;;;;;;;;;;2084103;28;20432;-59
2021/01/26 03:31:45;;;;;;;6.57;5.97;;;;;;;;;;2089511;28;20435;-57
2021/01/26 03:32:50;;;;;;;9.27;5.67;;;;;;;;;;2083667;28;20774;-59
2021/01/26 03:33:52;;;;;;;8.50;5.27;;;;;;;;;;2096973;28;20179;-61
2021/01/26 03:34:53;;;;;;;9.23;5.77;;;;;;;;;;2093682;28;20773;-59
2021/01/26 03:35:53;;;;;;;7.17;5.53;;;;;;;;;;2084892;28;20218;-56
2021/01/26 03:36:54;;;;;;;6.97;5.33;;;;;;;;;;2091773;28;20215;-59
2021/01/26 03:37:57;;;;;;;6.73;4.97;;;;;;;;;;2084380;28;20588;-58
2021/01/26 03:38:59;;;;;;;6.90;5.03;;;;;;;;;;2088660;28;20182;-61
2021/01/26 03:39:59;;;;;;;7.00;5.43;;;;;;;;;;2080414;28;20439;-58
2021/01/26 03:41:01;;;;;;;7.47;5.87;;;;;;;;;;2072011;28;20262;-57
2021/01/26 03:42:03;;;;;;;7.57;4.90;;;;;;;;;;2087693;28;20180;-60
2021/01/26 03:43:03;;;;;;;6.73;5.37;;;;;;;;;;2088977;28;20179;-58
2021/01/26 03:44:04;;;;;;;6.63;5.30;;;;;;;;;;2085607;28;20182;-61
2021/01/26 03:45:06;;;;;;;8.80;5.60;;;;;;;;;;2087390;28;20188;-59
2021/01/26 03:46:10;;;;;;;5.73;5.00;;;;;;;;;;2089768;28;20218;-59
2021/01/26 03:47:18;;;;;;;6.27;5.50;;;;;;;;;;2089482;28;20242;-61
2021/01/26 03:48:51;;;;;;;7.53;5.77;;;;;;;;;;2089277;28;20274;-61
2021/01/26 03:49:59;;;;;;;6.60;5.00;;;;;;;;;;2075066;28;20274;-60
2021/01/26 03:50:59;;;;;;;7.53;5.30;;;;;;;;;;2086074;28;20224;-58
2021/01/26 03:52:15;;;;;;;7.20;5.43;;;;;;;;;;2089354;28;20179;-59
2021/01/26 03:53:27;;;;;;;9.40;6.20;;;;;;;;;;2092942;28;20209;-60
2021/01/26 03:54:43;;;;;;;8.40;5.13;;;;;;;;;;2091430;28;20530;-58
2021/01/26 03:55:58;;;;;;;8.00;5.87;;;;;;;;;;2088441;28;21041;-57
2021/01/26 03:57:07;;;;;;;7.20;5.77;;;;;;;;;;2088981;28;20531;-60
2021/01/26 03:58:26;;;;;;;9.93;5.83;;;;;;;;;;2088428;28;20186;-60
2021/01/26 03:59:32;;;;;;;9.50;5.77;;;;;;;;;;2086336;28;20184;-58
2021/01/26 04:00:39;;;;;;;10.43;5.97;;;;;;;;;;2088579;28;20407;-58
2021/01/26 04:01:49;;;;;;;11.00;6.57;;;;;;;;;;2089051;28;20226;-58
2021/01/26 04:02:55;;;;;;;7.47;5.57;;;;;;;;;;2088887;28;20180;-58
2021/01/26 04:04:01;;;;;;;13.03;6.00;;;;;;;;;;2087538;28;20487;-59
2021/01/26 04:05:16;;;;;;;8.40;6.03;;;;;;;;;;2088928;28;20317;-60
2021/01/26 04:06:37;;;;;;;8.50;6.77;;;;;;;;;;2089523;28;20228;-62
2021/01/26 04:07:59;;;;;;;9.80;5.93;;;;;;;;;;2089248;28;20194;-58
2021/01/26 04:09:10;;;;;;;8.57;5.80;;;;;;;;;;2084955;28;20164;-60
2021/01/26 04:10:15;;;;;;;13.97;5.70;;;;;;;;;;2086473;28;20184;-59
2021/01/26 04:11:19;;;;;;;7.83;5.17;;;;;;;;;;2086997;28;20395;-60
2021/01/26 04:12:22;;;;;;;8.03;5.57;;;;;;;;;;2084983;28;20570;-57
2021/01/26 04:13:26;;;;;;;12.43;5.03;;;;;;;;;;2088488;28;20430;-61
2021/01/26 04:14:35;;;;;;;7.97;5.70;;;;;;;;;;2085333;28;20204;-59
2021/01/26 04:15:43;;;;;;;8.90;5.70;;;;;;;;;;2093209;28;20229;-61
2021/01/26 04:16:48;;;;;;;7.83;5.20;;;;;;;;;;2082262;28;20544;-58
2021/01/26 04:17:50;;;;;;;5.73;5.10;;;;;;;;;;2092474;28;20167;-59
2021/01/26 04:18:52;;;;;;;9.30;4.90;;;;;;;;;;2084655;28;20183;-59
2021/01/26 04:19:55;;;;;;;6.10;5.07;;;;;;;;;;2091177;28;20171;-59
2021/01/26 04:20:56;;;;;;;8.50;4.60;;;;;;;;;;2095580;28;20473;-60
2021/01/26 04:21:57;;;;;;;8.60;5.30;;;;;;;;;;2090179;28;20505;-59
2021/01/26 04:22:59;;;;;;;8.07;5.50;;;;;;;;;;2091262;28;20454;-57
2021/01/26 04:23:59;;;;;;;10.97;5.93;;;;;;;;;;2090958;28;20522;-60
2021/01/26 04:25:00;;;;;;;7.03;4.57;;;;;;;;;;2090445;28;20191;-57
2021/01/26 04:26:11;;;;;;;5.63;4.90;;;;;;;;;;2087841;28;20199;-58
2021/01/26 04:27:14;;;;;;;8.13;4.57;;;;;;;;;;2086325;28;20176;-58
2021/01/26 04:28:24;;;;;;;7.07;4.90;;;;;;;;;;2091409;28;20172;-60
2021/01/26 04:29:24;;;;;;;9.47;5.60;;;;;;;;;;2091288;28;20691;-57
2021/01/26 04:30:24;;;;;;;5.77;4.57;;;;;;;;;;2090189;28;20424;-58
2021/01/26 04:31:26;;;;;;;9.67;4.50;;;;;;;;;;2091308;28;20534;-57
2021/01/26 04:32:26;;;;;;;5.03;4.50;;;;;;;;;;2090183;28;20809;-58
2021/01/26 04:33:26;;;;;;;5.33;4.17;;;;;;;;;;2090395;28;20175;-58
2021/01/26 04:34:27;;;;;;;7.53;4.20;;;;;;;;;;2090464;28;20595;-60
2021/01/26 04:35:27;;;;;;;6.73;4.43;;;;;;;;;;2090789;28;20707;-59
2021/01/26 04:36:27;;;;;;;7.23;4.63;;;;;;;;;;2091748;28;20172;-59
2021/01/26 04:37:28;;;;;;;8.37;4.00;;;;;;;;;;2092505;28;20176;-61
2021/01/26 04:38:28;;;;;;;4.63;4.17;;;;;;;;;;2103998;28;20208;-57
2021/01/26 04:39:28;;;;;;;5.57;4.17;;;;;;;;;;2091348;28;20187;-57
2021/01/26 04:40:30;;;;;;;7.17;4.10;;;;;;;;;;2089392;28;20203;-59
2021/01/26 04:41:34;;;;;;;4.50;3.97;;;;;;;;;;2093613;28;20167;-60
2021/01/26 04:42:36;;;;;;;7.10;4.57;;;;;;;;;;2092528;28;20199;-60
2021/01/26 04:43:55;;;;;;;7.27;4.93;;;;;;;;;;2092185;28;20204;-60
2021/01/26 04:45:18;;;;;;;7.60;4.40;;;;;;;;;;2085558;28;20449;-61
2021/01/26 04:46:25;;;;;;;5.23;4.53;;;;;;;;;;2090130;28;20348;-61
2021/01/26 04:47:29;;;;;;;8.40;5.63;;;;;;;;;;2090618;28;20411;-61
2021/01/26 04:48:31;;;;;;;8.53;6.57;;;;;;;;;;2095397;28;20878;-60
2021/01/26 04:49:50;;;;;;;9.70;5.00;;;;;;;;;;2091730;28;20175;-60
2021/01/26 04:50:50;;;;;;;5.43;4.70;;;;;;;;;;2083266;28;20490;-60
2021/01/26 04:51:50;;;;;;;5.43;4.87;;;;;;;;;;2090267;28;20407;-59
2021/01/26 04:53:03;;;;;;;6.83;4.40;;;;;;;;;;2090134;28;20614;-60
2021/01/26 04:54:18;;;;;;;5.43;4.03;;;;;;;;;;2090661;28;20205;-58
2021/01/26 04:55:28;;;;;;;5.77;3.80;;;;;;;;;;2091048;28;20206;-58
2021/01/26 04:56:34;;;;;;;6.23;4.17;;;;;;;;;;2089931;28;20245;-60
2021/01/26 04:57:44;;;;;;;6.07;3.90;;;;;;;;;;2089778;28;20727;-58
2021/01/26 04:58:59;;;;;;;3.87;3.40;;;;;;;;;;2097491;28;20188;-60
2021/01/26 05:00:14;;;;;;;8.10;3.70;;;;;;;;;;2090907;28;20182;-56
2021/01/26 05:01:18;;;;;;;4.40;3.97;;;;;;;;;;2090870;28;20172;-59
2021/01/26 05:02:31;;;;;;;6.70;4.13;;;;;;;;;;2090329;28;20274;-58
2021/01/26 05:03:40;;;;;;;5.03;3.97;;;;;;;;;;2097015;28;20545;-61
2021/01/26 05:04:46;;;;;;;5.27;3.27;;;;;;;;;;2089316;28;20190;-60
2021/01/26 05:05:48;;;;;;;6.43;4.20;;;;;;;;;;2086092;28;20945;-57
2021/01/26 05:06:50;;;;;;;5.57;4.03;;;;;;;;;;2085349;28;20831;-59
2021/01/26 05:07:51;;;;;;;5.70;4.97;;;;;;;;;;2089755;28;20840;-60
2021/01/26 05:08:53;;;;;;;7.60;4.50;;;;;;;;;;2090172;28;20820;-60
2021/01/26 05:10:01;;;;;;;4.53;3.87;;;;;;;;;;2098339;28;20225;-59
2021/01/26 05:11:04;;;;;;;5.80;4.73;;;;;;;;;;2096838;28;20182;-60
2021/01/26 05:12:05;;;;;;;9.10;6.33;;;;;;;;;;2089797;28;20171;-59
2021/01/26 05:13:10;;;;;;;8.07;6.23;;;;;;;;;;2090145;28;20844;-59
2021/01/26 05:14:22;;;;;;;8.90;6.20;;;;;;;;;;2089890;28;20167;-57
2021/01/26 05:15:24;;;;;;;7.37;6.67;;;;;;;;;;2090414;28;20180;-58
2021/01/26 05:16:39;;;;;;;8.57;5.73;;;;;;;;;;2092552;28;20415;-58
2021/01/26 05:17:45;;;;;;;7.10;6.17;;;;;;;;;;2089754;28;20978;-57
2021/01/26 05:18:58;;;;;;;9.97;6.80;;;;;;;;;;2096630;28;20439;-59
2021/01/26 05:19:58;;;;;;;7.10;5.80;;;;;;;;;;2089809;28;20164;-60
2021/01/26 05:21:01;;;;;;;8.07;6.03;;;;;;;;;;2085244;28;20571;-60
2021/01/26 05:22:08;;;;;;;9.13;6.37;;;;;;;;;;2090658;28;20180;-59
2021/01/26 05:23:15;;;;;;;8.83;5.73;;;;;;;;;;2090292;28;20424;-60
2021/01/26 05:24:26;;;;;;;7.97;5.93;;;;;;;;;;2090711;28;20200;-60
2021/01/26 05:25:27;;;;;;;6.70;6.00;;;;;;;;;;2090574;28;20503;-57
2021/01/26 05:26:28;;;;;;;6.83;6.03;;;;;;;;;;2087233;28;20445;-60
2021/01/26 05:27:29;;;;;;;8.27;6.30;;;;;;;;;;2089747;28;20209;-60
2021/01/26 05:28:29;;;;;;;9.63;7.03;;;;;;;;;;2090475;28;20183;-59
2021/01/26 05:29:30;;;;;;;7.43;5.90;;;;;;;;;;2090237;28;20480;-59
2021/01/26 05:30:35;;;;;;;10.47;7.03;;;;;;;;;;2091271;28;20200;-61
2021/01/26 05:31:36;;;;;;;13.27;7.57;;;;;;;;;;2092301;28;20626;-58
2021/01/26 05:32:37;;;;;;;8.87;6.83;;;;;;;;;;2083694;28;20449;-58
2021/01/26 05:33:37;;;;;;;9.67;7.33;;;;;;;;;;2089610;28;20229;-60
2021/01/26 05:34:39;;;;;;;10.83;8.03;;;;;;;;;;2091712;28;20454;-59
2021/01/26 05:35:41;;;;;;;8.90;7.90;;;;;;;;;;2090642;28;20180;-60
2021/01/26 05:36:42;;;;;;;9.93;7.60;;;;;;;;;;2090590;28;20396;-61
2021/01/26 05:37:44;;;;;;;11.07;7.67;;;;;;;;;;2089189;28;20909;-59
2021/01/26 05:38:48;;;;;;;11.03;8.10;;;;;;;;;;2082850;28;20928;-60
2021/01/26 05:40:02;;;;;;;8.80;7.47;;;;;;;;;;2090248;28;20486;-60
2021/01/26 05:41:05;;;;;;;11.77;8.77;;;;;;;;;;2097632;28;20411;-60
2021/01/26 05:42:05;;;;;;;11.37;8.10;;;;;;;;;;2103632;28;20403;-59
2021/01/26 05:43:06;;;;;;;12.97;8.90;;;;;;;;;;2094670;28;20500;-61
2021/01/26 05:44:07;;;;;;;12.50;8.70;;;;;;;;;;2086711;28;20278;-59
2021/01/26 05:45:10;;;;;;;12.00;9.50;;;;;;;;;;2088992;28;20474;-59
2021/01/26 05:46:29;;;;;;;11.27;9.37;;;;;;;;;;2089602;28;20207;-61
2021/01/26 05:47:31;;;;;;;12.83;8.73;;;;;;;;;;2086774;28;20417;-59
2021/01/26 05:48:44;;;;;;;12.27;9.63;;;;;;;;;;2089886;28;20813;-58
2021/01/26 05:49:44;;;;;;;9.73;8.73;;;;;;;;;;2083935;28;20413;-61
2021/01/26 05:50:46;;;;;;;10.40;8.87;;;;;;;;;;2089474;28;20420;-61
2021/01/26 05:51:46;;;;;;;15.13;9.63;;;;;;;;;;2089789;28;20199;-58
2021/01/26 05:52:46;;;;;;;13.63;10.20;;;;;;;;;;2086667;28;20456;-60
2021/01/26 05:53:51;;;;;;;11.63;9.20;;;;;;;;;;2087525;28;20214;-61
2021/01/26 05:54:52;;;;;;;13.73;9.73;;;;;;;;;;2089258;28;20183;-61
2021/01/26 05:56:08;;;;;;;14.13;10.47;;;;;;;;;;2090266;28;20523;-61
2021/01/26 05:57:08;;;;;;;11.77;8.93;;;;;;;;;;2090041;28;20392;-60
2021/01/26 05:58:11;;;;;;;16.83;10.73;;;;;;;;;;2089270;28;20980;-58
2021/01/26 05:59:19;;;;;;;14.63;10.10;;;;;;;;;;2087323;28;20190;-60
2021/01/26 06:00:21;;;;;;;15.87;11.10;;;;;;;;;;2088095;28;20397;-61
2021/01/26 06:01:26;;;;;;;15.57;10.97;;;;;;;;;;2089215;28;20429;-61
2021/01/26 06:02:26;;;;;;;13.30;10.47;;;;;;;;;;2090836;28;20482;-60
2021/01/26 06:03:29;;;;;;;12.63;10.50;;;;;;;;;;2086764;28;20863;-59
2021/01/26 06:04:30;;;;;;;15.87;11.77;;;;;;;;;;2090999;28;20188;-60
2021/01/26 06:05:30;;;;;;;16.77;12.03;;;;;;;;;;2089563;28;20408;-60
2021/01/26 06:06:30;;;;;;;13.73;10.03;;;;;;;;;;2086729;28;20604;-61
2021/01/26 06:07:31;;;;;;;15.17;10.77;;;;;;;;;;2091118;28;20250;-61
2021/01/26 06:08:32;;;;;;;14.57;11.87;;;;;;;;;;2081823;28;20267;-59
2021/01/26 06:09:40;;;;;;;16.07;11.60;;;;;;;;;;2081669;28;20167;-60
2021/01/26 06:10:42;;;;;;;14.33;11.27;;;;;;;;;;2082239;28;21366;-59
2021/01/26 06:11:42;;;;;;;15.53;12.13;;;;;;;;;;2089676;28;20413;-61
2021/01/26 06:12:53;;;;;;;15.10;11.17;;;;;;;;;;2089302;28;20451;-60
2021/01/26 06:14:06;;;;;;;16.60;12.40;;;;;;;;;;2089911;28;20214;-59
2021/01/26 06:15:07;;;;;;;14.13;11.83;;;;;;;;;;2089395;28;20432;-61
2021/01/26 06:16:21;;;;;;;16.43;12.63;;;;;;;;;;2090896;28;20522;-58
2021/01/26 06:17:23;;;;;;;14.53;12.17;;;;;;;;;;2093214;28;20177;-60
2021/01/26 06:18:23;;;;;;;15.97;11.90;;;;;;;;;;2090018;28;20491;-61
2021/01/26 06:19:23;;;;;;;15.03;11.67;;;;;;;;;;2089506;28;20433;-58
2021/01/26 06:20:24;;;;;;;17.80;12.97;;;;;;;;;;2090125;28;20175;-57
2021/01/26 06:21:24;;;;;;;14.30;12.00;;;;;;;;;;2090305;28;20221;-57